createdAt,value
2023-05-14T00:01:10.085Z,100832.91
2023-05-14T00:03:40.030Z,100838.03
2023-05-14T00:06:10.953Z,100845.09
2023-05-14T00:08:38.973Z,100832.56
2023-05-14T00:11:09.118Z,100839.63
2023-05-14T00:13:39.810Z,100840.13
2023-05-14T00:16:07.994Z,100838.72
2023-05-14T00:18:36.068Z,100833.22
2023-05-14T00:21:04.040Z,100841.19
2023-05-14T00:23:33.446Z,100847.47
2023-05-14T00:26:01.886Z,100843.84
2023-05-14T00:28:29.981Z,100841.59
2023-05-14T00:30:58.059Z,100840.78
2023-05-14T00:33:26.050Z,100845.69
2023-05-14T00:35:54.138Z,100843.75
2023-05-14T00:38:24.173Z,100847.31
2023-05-14T00:40:53.530Z,100842.13
2023-05-14T00:43:22.651Z,100842.69
2023-05-14T00:45:52.179Z,100846.97
2023-05-14T00:48:21.462Z,100842.53
2023-05-14T00:50:50.626Z,100848.81
2023-05-14T00:53:19.910Z,100842.44
2023-05-14T00:55:49.857Z,100840.72
2023-05-14T00:58:19.777Z,100841.44
2023-05-14T01:00:48.079Z,100842.19
2023-05-14T01:03:16.411Z,100841.56
2023-05-14T01:06:02.496Z,100842.03
2023-05-14T01:08:48.793Z,100839.81
2023-05-14T01:11:21.617Z,100843.00
2023-05-14T01:14:00.304Z,100844.69
2023-05-14T01:16:30.644Z,100842.72
2023-05-14T01:19:00.917Z,100838.34
2023-05-14T01:21:40.448Z,100839.78
2023-05-14T01:24:09.325Z,100833.41
2023-05-14T01:26:38.230Z,100836.16
2023-05-14T01:29:15.052Z,100838.03
2023-05-14T01:31:45.499Z,100840.44
2023-05-14T01:34:15.235Z,100839.44
2023-05-14T01:36:45.538Z,100838.94
2023-05-14T01:39:17.949Z,100838.88
2023-05-14T01:41:47.567Z,100840.13
2023-05-14T01:44:16.166Z,100840.38
2023-05-14T01:46:44.227Z,100848.75
2023-05-14T01:49:12.309Z,100841.25
2023-05-14T01:51:40.264Z,100843.97
2023-05-14T01:54:10.236Z,100842.25
2023-05-14T01:56:38.188Z,100843.50
2023-05-14T01:59:06.290Z,100839.38
2023-05-14T02:01:34.476Z,100843.75
2023-05-14T02:04:02.592Z,100844.66
2023-05-14T02:06:31.728Z,100847.28
2023-05-14T02:09:02.154Z,100846.31
2023-05-14T02:11:31.487Z,100852.22
2023-05-14T02:13:59.523Z,100852.22
2023-05-14T02:16:27.659Z,100849.91
2023-05-14T02:18:55.748Z,100853.31
2023-05-14T02:21:23.701Z,100853.22
2023-05-14T02:23:51.668Z,100860.06
2023-05-14T02:26:19.684Z,100866.00
2023-05-14T02:28:49.031Z,100860.47
2023-05-14T02:31:17.682Z,100859.66
2023-05-14T02:33:45.452Z,100867.03
2023-05-14T02:36:13.467Z,100858.56
2023-05-14T02:38:41.831Z,100854.50
2023-05-14T02:41:09.857Z,100860.94
2023-05-14T02:43:37.822Z,100860.47
2023-05-14T02:46:07.291Z,100859.97
2023-05-14T02:48:35.260Z,100851.22
2023-05-14T02:51:03.655Z,100854.50
2023-05-14T02:53:31.670Z,100849.66
2023-05-14T02:55:59.670Z,100852.78
2023-05-14T02:58:28.359Z,100846.44
2023-05-14T03:00:56.779Z,100852.38
2023-05-14T03:03:26.516Z,100852.38
2023-05-14T03:05:55.185Z,100855.00
2023-05-14T03:08:23.273Z,100850.25
2023-05-14T03:10:51.336Z,100849.72
2023-05-14T03:13:20.845Z,100845.78
2023-05-14T03:15:54.840Z,100837.78
2023-05-14T03:18:23.035Z,100838.34
2023-05-14T03:20:52.387Z,100849.25
2023-05-14T03:23:20.362Z,100845.28
2023-05-14T03:25:48.325Z,100846.31
2023-05-14T03:28:16.303Z,100846.94
2023-05-14T03:30:44.389Z,100850.50
2023-05-14T03:33:12.776Z,100837.72
2023-05-14T03:35:40.743Z,100838.78
2023-05-14T03:38:10.050Z,100835.72
2023-05-14T03:40:38.034Z,100841.84
2023-05-14T03:43:06.076Z,100837.22
2023-05-14T03:45:34.800Z,100841.59
2023-05-14T03:48:02.860Z,100837.06
2023-05-14T03:50:30.942Z,100835.06
2023-05-14T03:52:59.209Z,100833.25
2023-05-14T03:55:28.545Z,100832.09
2023-05-14T03:57:56.529Z,100836.09
2023-05-14T04:00:25.021Z,100827.97
2023-05-14T04:02:53.422Z,100828.94
2023-05-14T04:05:21.767Z,100833.06
2023-05-14T04:07:49.719Z,100826.63
2023-05-14T04:10:17.655Z,100829.22
2023-05-14T04:12:46.999Z,100828.06
2023-05-14T04:15:14.981Z,100821.31
2023-05-14T04:17:42.935Z,100824.22
2023-05-14T04:20:11.646Z,100826.88
2023-05-14T04:22:39.618Z,100832.16
2023-05-14T04:25:08.420Z,100826.38
2023-05-14T04:27:36.410Z,100823.97
2023-05-14T04:30:06.805Z,100830.50
2023-05-14T04:32:37.394Z,100824.53
2023-05-14T04:35:06.092Z,100828.16
2023-05-14T04:37:34.067Z,100817.28
2023-05-14T04:40:02.300Z,100816.84
2023-05-14T04:42:33.313Z,100814.72
2023-05-14T04:45:05.257Z,100811.19
2023-05-14T04:47:34.719Z,100823.75
2023-05-14T04:50:02.903Z,100816.66
2023-05-14T04:52:30.893Z,100818.63
2023-05-14T04:54:58.814Z,100814.81
2023-05-14T04:57:26.818Z,100818.44
2023-05-14T04:59:54.825Z,100818.44
2023-05-14T05:02:22.826Z,100817.34
2023-05-14T05:04:52.240Z,100816.69
2023-05-14T05:07:20.221Z,100823.38
2023-05-14T05:09:48.193Z,100818.53
2023-05-14T05:12:16.215Z,100819.75
2023-05-14T05:14:44.120Z,100818.72
2023-05-14T05:17:12.110Z,100816.34
2023-05-14T05:19:44.029Z,100812.31
2023-05-14T05:22:14.010Z,100816.19
2023-05-14T05:24:42.034Z,100815.16
2023-05-14T05:27:10.006Z,100814.09
2023-05-14T05:29:37.986Z,100811.72
2023-05-14T05:32:06.843Z,100809.31
2023-05-14T05:34:35.921Z,100807.75
2023-05-14T05:37:05.280Z,100806.16
2023-05-14T05:39:34.974Z,100802.31
2023-05-14T05:42:03.659Z,100802.09
2023-05-14T05:44:31.664Z,100797.47
2023-05-14T05:46:59.734Z,100799.97
2023-05-14T05:49:27.822Z,100792.63
2023-05-14T05:51:55.829Z,100800.31
2023-05-14T05:54:27.372Z,100796.78
2023-05-14T05:56:56.890Z,100800.09
2023-05-14T05:59:25.436Z,100792.72
2023-05-14T06:01:53.267Z,100803.13
2023-05-14T06:04:21.536Z,100794.13
2023-05-14T06:06:49.714Z,100794.97
2023-05-14T06:09:17.698Z,100798.28
2023-05-14T06:11:45.722Z,100794.13
2023-05-14T06:14:15.041Z,100793.88
2023-05-14T06:16:43.072Z,100793.09
2023-05-14T06:19:11.346Z,100801.31
2023-05-14T06:21:39.543Z,100795.81
2023-05-14T06:24:08.246Z,100783.78
2023-05-14T06:26:36.202Z,100788.41
2023-05-14T06:29:04.152Z,100784.59
2023-05-14T06:31:33.754Z,100782.09
2023-05-14T06:34:01.731Z,100780.72
2023-05-14T06:36:29.688Z,100782.31
2023-05-14T06:38:57.678Z,100781.19
2023-05-14T06:41:26.209Z,100780.88
2023-05-14T06:43:55.339Z,100784.97
2023-05-14T06:46:23.427Z,100779.97
2023-05-14T06:48:57.994Z,100774.72
2023-05-14T06:51:27.207Z,100778.78
2023-05-14T06:53:56.106Z,100775.97
2023-05-14T06:56:24.104Z,100772.84
2023-05-14T06:58:52.209Z,100770.28
2023-05-14T07:01:20.260Z,100771.84
2023-05-14T07:03:48.315Z,100768.97
2023-05-14T07:06:17.737Z,100773.25
2023-05-14T07:08:47.408Z,100766.56
2023-05-14T07:11:15.702Z,100771.44
2023-05-14T07:13:44.084Z,100766.13
2023-05-14T07:16:12.039Z,100765.66
2023-05-14T07:18:40.387Z,100763.34
2023-05-14T07:21:08.325Z,100756.38
2023-05-14T07:23:38.587Z,100757.91
2023-05-14T07:26:07.093Z,100753.16
2023-05-14T07:28:35.230Z,100744.72
2023-05-14T07:31:05.128Z,100752.31
2023-05-14T07:33:33.161Z,100749.19
2023-05-14T07:36:02.396Z,100750.97
2023-05-14T07:38:30.555Z,100743.38
2023-05-14T07:40:59.855Z,100742.13
2023-05-14T07:43:28.088Z,100743.59
2023-05-14T07:45:56.654Z,100731.53
2023-05-14T07:48:24.690Z,100738.75
2023-05-14T07:50:52.649Z,100731.84
2023-05-14T07:53:20.605Z,100716.66
2023-05-14T07:55:50.542Z,100719.94
2023-05-14T07:58:19.846Z,100723.63
2023-05-14T08:00:47.839Z,100714.50
2023-05-14T08:03:15.821Z,100713.19
2023-05-14T08:05:43.892Z,100715.66
2023-05-14T08:08:12.564Z,100720.13
2023-05-14T08:10:40.602Z,100720.72
2023-05-14T08:13:08.576Z,100711.28
2023-05-14T08:15:37.877Z,100713.19
2023-05-14T08:18:06.062Z,100712.88
2023-05-14T08:20:34.058Z,100714.88
2023-05-14T08:23:02.128Z,100707.47
2023-05-14T08:25:30.143Z,100712.16
2023-05-14T08:27:59.855Z,100711.88
2023-05-14T08:30:28.346Z,100708.38
2023-05-14T08:32:59.794Z,100701.94
2023-05-14T08:35:27.804Z,100701.38
2023-05-14T08:37:57.122Z,100697.00
2023-05-14T08:40:25.367Z,100702.28
2023-05-14T08:42:54.114Z,100697.28
2023-05-14T08:45:25.789Z,100697.81
2023-05-14T08:47:54.319Z,100699.53
2023-05-14T08:50:24.097Z,100692.53
2023-05-14T08:52:52.838Z,100689.28
2023-05-14T08:55:21.330Z,100682.47
2023-05-14T08:57:49.867Z,100687.34
2023-05-14T09:00:18.744Z,100674.84
2023-05-14T09:02:51.036Z,100681.81
2023-05-14T09:05:23.178Z,100674.34
2023-05-14T09:07:53.109Z,100671.72
2023-05-14T09:10:22.648Z,100678.53
2023-05-14T09:12:51.713Z,100672.84
2023-05-14T09:15:19.877Z,100665.50
2023-05-14T09:17:48.740Z,100664.88
2023-05-14T09:20:17.076Z,100664.69
2023-05-14T09:22:44.828Z,100665.94
2023-05-14T09:25:14.275Z,100659.47
2023-05-14T09:27:42.270Z,100673.59
2023-05-14T09:30:11.928Z,100660.81
2023-05-14T09:32:40.956Z,100662.19
2023-05-14T09:35:17.932Z,100662.34
2023-05-14T09:37:48.537Z,100656.09
2023-05-14T09:40:22.035Z,100649.81
2023-05-14T09:42:50.568Z,100649.59
2023-05-14T09:45:19.247Z,100658.97
2023-05-14T09:47:47.558Z,100646.91
2023-05-14T09:50:15.781Z,100650.09
2023-05-14T09:52:43.826Z,100646.44
2023-05-14T09:55:14.144Z,100642.84
2023-05-14T09:57:43.717Z,100635.66
2023-05-14T10:00:12.797Z,100630.91
2023-05-14T10:02:43.114Z,100629.97
2023-05-14T10:05:13.352Z,100633.41
2023-05-14T10:07:45.848Z,100631.84
2023-05-14T10:10:17.148Z,100626.56
2023-05-14T10:12:52.893Z,100623.13
2023-05-14T10:15:25.103Z,100627.78
2023-05-14T10:17:57.508Z,100621.06
2023-05-14T10:20:27.938Z,100622.97
2023-05-14T10:22:56.281Z,100621.47
2023-05-14T10:25:24.874Z,100620.34
2023-05-14T10:27:55.207Z,100616.25
2023-05-14T10:30:24.457Z,100619.19
2023-05-14T10:33:08.299Z,100617.09
2023-05-14T10:35:58.518Z,100618.44
2023-05-14T10:38:28.478Z,100612.59
2023-05-14T10:41:01.962Z,100615.16
2023-05-14T10:43:32.907Z,100603.41
2023-05-14T10:46:02.880Z,100603.13
2023-05-14T10:48:31.400Z,100605.78
2023-05-14T10:50:59.570Z,100602.66
2023-05-14T10:53:34.057Z,100594.16
2023-05-14T10:56:05.952Z,100587.25
2023-05-14T10:58:37.642Z,100580.13
2023-05-14T11:01:07.437Z,100588.94
2023-05-14T11:03:42.076Z,100575.97
2023-05-14T11:06:11.285Z,100574.72
2023-05-14T11:08:39.944Z,100579.28
2023-05-14T11:11:08.627Z,100581.38
2023-05-14T11:13:37.985Z,100572.34
2023-05-14T11:18:38.984Z,100571.88
2023-05-14T11:21:07.046Z,100559.69
2023-05-14T11:23:35.047Z,100559.84
2023-05-14T11:26:03.496Z,100565.38
2023-05-14T11:28:31.605Z,100555.06
2023-05-14T11:31:01.080Z,100558.81
2023-05-14T11:33:29.359Z,100554.97
2023-05-14T11:35:57.262Z,100544.06
2023-05-14T11:38:25.208Z,100541.25
2023-05-14T11:40:54.361Z,100541.38
2023-05-14T11:43:23.761Z,100543.84
2023-05-14T11:45:52.675Z,100544.97
2023-05-14T11:48:22.802Z,100536.63
2023-05-14T11:50:52.192Z,100539.69
2023-05-14T11:53:20.877Z,100537.44
2023-05-14T11:55:49.108Z,100535.69
2023-05-14T11:58:18.920Z,100531.16
2023-05-14T12:00:47.524Z,100528.56
2023-05-14T12:03:15.777Z,100529.66
2023-05-14T12:05:58.179Z,100521.50
2023-05-14T12:08:28.632Z,100514.72
2023-05-14T12:10:56.978Z,100514.81
2023-05-14T12:13:27.657Z,100512.41
2023-05-14T12:15:57.294Z,100511.69
2023-05-14T12:18:27.070Z,100512.47
2023-05-14T12:20:57.583Z,100500.28
2023-05-14T12:23:31.259Z,100502.31
2023-05-14T12:26:04.004Z,100505.25
2023-05-14T12:28:34.240Z,100498.97
2023-05-14T12:31:04.289Z,100501.91
2023-05-14T12:33:32.300Z,100499.91
2023-05-14T12:36:09.993Z,100499.00
2023-05-14T12:38:50.237Z,100495.00
2023-05-14T12:41:18.911Z,100503.19
2023-05-14T12:43:49.020Z,100498.47
2023-05-14T12:46:17.279Z,100489.31
2023-05-14T12:48:45.596Z,100491.63
2023-05-14T12:51:13.868Z,100502.00
2023-05-14T12:53:42.003Z,100499.75
2023-05-14T12:56:11.147Z,100503.50
2023-05-14T12:58:39.317Z,100497.56
2023-05-14T13:01:07.063Z,100486.78
2023-05-14T13:03:35.024Z,100485.03
2023-05-14T13:06:05.439Z,100489.13
2023-05-14T13:08:33.395Z,100493.50
2023-05-14T13:11:01.344Z,100477.53
2023-05-14T13:13:30.775Z,100474.63
2023-05-14T13:18:45.434Z,100471.72
2023-05-14T13:21:13.188Z,100469.72
2023-05-14T13:23:41.140Z,100464.44
2023-05-14T13:26:09.148Z,100457.03
2023-05-14T13:28:38.489Z,100448.31
2023-05-14T13:31:08.292Z,100448.16
2023-05-14T13:33:37.915Z,100447.16
2023-05-14T13:36:06.445Z,100441.22
2023-05-14T13:38:34.816Z,100443.38
2023-05-14T13:41:03.104Z,100436.09
2023-05-14T13:43:31.545Z,100435.38
2023-05-14T13:46:01.485Z,100429.34
2023-05-14T13:48:30.976Z,100432.50
2023-05-14T13:50:59.221Z,100437.88
2023-05-14T13:53:27.314Z,100431.06
2023-05-14T13:56:01.320Z,100418.72
2023-05-14T13:58:29.763Z,100423.84
2023-05-14T14:01:00.599Z,100413.69
2023-05-14T14:03:28.520Z,100422.22
2023-05-14T14:05:56.503Z,100417.59
2023-05-14T14:08:27.696Z,100410.66
2023-05-14T14:10:55.912Z,100412.09
2023-05-14T14:13:24.431Z,100411.47
2023-05-14T14:15:52.591Z,100396.13
2023-05-14T14:18:22.008Z,100398.84
2023-05-14T14:20:50.089Z,100393.19
2023-05-14T14:23:18.029Z,100386.75
2023-05-14T14:25:48.449Z,100387.50
2023-05-14T14:28:16.375Z,100387.94
2023-05-14T14:30:44.878Z,100391.22
2023-05-14T14:33:12.948Z,100372.78
2023-05-14T14:35:42.432Z,100381.53
2023-05-14T14:38:10.369Z,100378.81
2023-05-14T14:40:41.427Z,100379.19
2023-05-14T14:43:09.375Z,100367.91
2023-05-14T14:45:37.698Z,100383.34
2023-05-14T14:48:26.322Z,100389.38
2023-05-14T14:50:56.484Z,100382.88
2023-05-14T14:53:25.352Z,100376.28
2023-05-14T14:55:53.595Z,100378.84
2023-05-14T14:58:22.260Z,100378.00
2023-05-14T15:00:52.248Z,100373.25
2023-05-14T15:03:20.873Z,100371.53
2023-05-14T15:05:49.193Z,100365.31
2023-05-14T15:08:18.656Z,100370.03
2023-05-14T15:10:46.935Z,100363.72
2023-05-14T15:13:14.957Z,100369.75
2023-05-14T15:15:43.034Z,100372.56
2023-05-14T15:18:11.317Z,100364.50
2023-05-14T15:20:39.368Z,100358.13
2023-05-14T15:23:07.484Z,100358.72
2023-05-14T15:25:37.465Z,100353.97
2023-05-14T15:28:16.853Z,100357.91
2023-05-14T15:30:44.822Z,100352.94
2023-05-14T15:33:12.753Z,100350.53
2023-05-14T15:35:40.747Z,100348.09
2023-05-14T15:38:08.998Z,100347.38
2023-05-14T15:40:38.420Z,100345.63
2023-05-14T15:43:06.755Z,100355.28
2023-05-14T15:45:34.755Z,100341.38
2023-05-14T15:48:02.833Z,100339.97
2023-05-14T15:50:30.819Z,100339.44
2023-05-14T15:52:58.855Z,100339.53
2023-05-14T15:55:26.896Z,100333.28
2023-05-14T15:57:56.265Z,100336.97
2023-05-14T16:00:25.038Z,100330.47
2023-05-14T16:02:53.645Z,100317.28
2023-05-14T16:05:21.663Z,100326.19
2023-05-14T16:07:49.918Z,100318.19
2023-05-14T16:10:17.678Z,100315.69
2023-05-14T16:12:45.726Z,100317.09
2023-05-14T16:15:15.129Z,100311.44
2023-05-14T16:17:43.198Z,100304.97
2023-05-14T16:20:12.928Z,100305.50
2023-05-14T16:22:40.850Z,100302.94
2023-05-14T16:25:09.532Z,100302.75
2023-05-14T16:27:37.631Z,100293.03
2023-05-14T16:30:06.939Z,100298.88
2023-05-14T16:32:36.354Z,100297.16
2023-05-14T16:35:04.574Z,100292.66
2023-05-14T16:37:32.390Z,100293.63
2023-05-14T16:40:00.366Z,100285.56
2023-05-14T16:42:28.294Z,100289.84
2023-05-14T16:44:56.259Z,100293.72
2023-05-14T16:47:24.363Z,100289.66
2023-05-14T16:49:53.668Z,100285.59
2023-05-14T16:52:21.621Z,100283.09
2023-05-14T16:54:49.558Z,100287.56
2023-05-14T16:57:17.502Z,100284.69
2023-05-14T16:59:45.527Z,100284.28
2023-05-14T17:02:13.727Z,100283.88
2023-05-14T17:04:42.334Z,100281.13
2023-05-14T17:07:12.064Z,100280.81
2023-05-14T17:09:40.039Z,100278.97
2023-05-14T17:12:09.619Z,100283.38
2023-05-14T17:14:37.590Z,100280.81
2023-05-14T17:17:06.109Z,100285.78
2023-05-14T17:19:34.272Z,100292.88
2023-05-14T17:22:02.069Z,100297.75
2023-05-14T17:24:31.471Z,100292.53
2023-05-14T17:26:59.488Z,100291.47
2023-05-14T17:29:27.519Z,100288.09
2023-05-14T17:31:55.702Z,100284.63
2023-05-14T17:34:23.938Z,100278.97
2023-05-14T17:39:19.606Z,100285.31
2023-05-14T17:41:48.982Z,100288.44
2023-05-14T17:44:16.938Z,100281.31
2023-05-14T17:46:46.045Z,100284.09
2023-05-14T17:49:16.386Z,100286.88
2023-05-14T17:51:44.360Z,100291.91
2023-05-14T17:54:12.388Z,100290.97
2023-05-14T17:56:40.870Z,100289.41
2023-05-14T17:59:10.277Z,100274.00
2023-05-14T18:01:38.256Z,100279.19
2023-05-14T18:04:07.827Z,100285.16
2023-05-14T18:06:36.177Z,100292.19
2023-05-14T18:09:04.330Z,100295.31
2023-05-14T18:11:34.099Z,100286.38
2023-05-14T18:14:02.428Z,100289.97
2023-05-14T18:16:32.147Z,100281.97
2023-05-14T18:19:00.842Z,100283.03
2023-05-14T18:21:28.953Z,100289.94
2023-05-14T18:23:56.924Z,100286.09
2023-05-14T18:26:24.881Z,100282.94
2023-05-14T18:28:53.140Z,100282.44
2023-05-14T18:31:21.014Z,100279.91
2023-05-14T18:33:50.555Z,100278.09
2023-05-14T18:36:19.900Z,100281.59
2023-05-14T18:38:47.894Z,100278.75
2023-05-14T18:41:15.897Z,100285.09
2023-05-14T18:43:49.342Z,100285.16
2023-05-14T18:46:18.173Z,100288.47
2023-05-14T18:48:46.266Z,100284.88
2023-05-14T18:51:15.842Z,100288.38
2023-05-14T18:53:43.861Z,100282.34
2023-05-14T18:56:11.942Z,100289.88
2023-05-14T18:58:39.918Z,100288.59
2023-05-14T19:01:07.954Z,100291.72
2023-05-14T19:03:36.080Z,100291.28
2023-05-14T19:06:04.254Z,100293.50
2023-05-14T19:08:33.613Z,100277.44
2023-05-14T19:11:01.613Z,100281.19
2023-05-14T19:13:30.361Z,100286.41
2023-05-14T19:15:58.683Z,100281.25
2023-05-14T19:18:26.581Z,100293.63
2023-05-14T19:20:56.706Z,100288.09
2023-05-14T19:23:26.784Z,100291.19
2023-05-14T19:25:56.209Z,100294.63
2023-05-14T19:28:24.196Z,100283.88
2023-05-14T19:30:53.371Z,100291.69
2023-05-14T19:33:21.344Z,100286.34
2023-05-14T19:35:49.335Z,100285.69
2023-05-14T19:38:17.308Z,100285.38
2023-05-14T19:40:45.320Z,100283.78
2023-05-14T19:43:14.683Z,100285.72
2023-05-14T19:45:42.864Z,100286.22
2023-05-14T19:48:12.596Z,100282.97
2023-05-14T19:50:41.535Z,100278.75
2023-05-14T19:53:09.514Z,100285.22
2023-05-14T19:55:37.541Z,100287.03
2023-05-14T19:58:05.754Z,100278.06
2023-05-14T20:00:35.166Z,100276.59
2023-05-14T20:03:03.270Z,100280.16
2023-05-14T20:05:31.993Z,100279.34
2023-05-14T20:07:59.951Z,100280.47
2023-05-14T20:10:28.396Z,100279.66
2023-05-14T20:12:56.575Z,100279.66
2023-05-14T20:15:24.646Z,100280.00
2023-05-14T20:17:54.079Z,100284.34
2023-05-14T20:20:22.337Z,100284.03
2023-05-14T20:22:50.224Z,100280.44
2023-05-14T20:25:18.471Z,100279.28
2023-05-14T20:27:46.641Z,100274.91
2023-05-14T20:30:14.762Z,100277.47
2023-05-14T20:32:43.213Z,100277.16
2023-05-14T20:35:12.677Z,100272.72
2023-05-14T20:37:41.377Z,100277.78
2023-05-14T20:40:13.670Z,100272.22
2023-05-14T20:42:41.892Z,100281.63
2023-05-14T20:45:10.868Z,100282.84
2023-05-14T20:47:38.961Z,100280.00
2023-05-14T20:50:08.140Z,100287.88
2023-05-14T20:52:37.609Z,100284.78
2023-05-14T20:55:07.680Z,100286.84
2023-05-14T20:57:35.694Z,100279.16
2023-05-14T21:00:07.156Z,100281.41
2023-05-14T21:02:35.341Z,100282.66
2023-05-14T21:05:03.451Z,100283.59
2023-05-14T21:07:31.832Z,100282.28
2023-05-14T21:10:01.888Z,100276.28
2023-05-14T21:12:29.925Z,100277.03
2023-05-14T21:14:57.896Z,100280.22
2023-05-14T21:17:26.018Z,100280.81
2023-05-14T21:19:54.083Z,100276.09
2023-05-14T21:22:23.129Z,100276.91
2023-05-14T21:24:51.304Z,100279.34
2023-05-14T21:27:20.830Z,100282.19
2023-05-14T21:29:48.796Z,100273.66
2023-05-14T21:32:16.751Z,100274.78
2023-05-14T21:34:44.794Z,100272.63
2023-05-14T21:37:12.821Z,100267.94
2023-05-14T21:39:41.039Z,100263.44
2023-05-14T21:42:09.897Z,100256.31
2023-05-14T21:44:39.230Z,100261.34
2023-05-14T21:47:08.909Z,100265.50
2023-05-14T21:49:36.868Z,100261.00
2023-05-14T21:52:05.252Z,100261.75
2023-05-14T21:54:33.045Z,100266.31
2023-05-14T21:57:01.674Z,100272.13
2023-05-14T21:59:29.625Z,100275.22
2023-05-14T22:04:29.893Z,100272.28
2023-05-14T22:06:57.976Z,100271.47
2023-05-14T22:09:25.960Z,100268.31
2023-05-14T22:11:54.107Z,100268.31
2023-05-14T22:14:22.305Z,100270.66
2023-05-14T22:16:50.541Z,100265.41
2023-05-14T22:19:19.980Z,100263.38
2023-05-14T22:21:47.971Z,100276.81
2023-05-14T22:24:15.885Z,100264.88
2023-05-14T22:26:43.919Z,100270.50
2023-05-14T22:29:11.851Z,100268.25
2023-05-14T22:31:39.862Z,100274.38
2023-05-14T22:34:07.828Z,100268.75
2023-05-14T22:36:37.194Z,100267.44
2023-05-14T22:39:05.254Z,100269.28
2023-05-14T22:41:33.825Z,100265.63
2023-05-14T22:44:01.793Z,100267.97
2023-05-14T22:46:30.976Z,100269.50
2023-05-14T22:48:58.916Z,100262.47
2023-05-14T22:51:27.069Z,100267.06
2023-05-14T22:53:56.371Z,100260.50
2023-05-14T22:56:24.378Z,100252.69
2023-05-14T22:58:52.354Z,100249.81
2023-05-14T23:01:20.457Z,100257.63
2023-05-14T23:03:48.430Z,100254.16
2023-05-14T23:06:16.430Z,100252.78
2023-05-14T23:08:44.387Z,100255.50
2023-05-14T23:11:14.188Z,100249.88
2023-05-14T23:13:42.128Z,100238.75
2023-05-14T23:16:10.329Z,100242.00
2023-05-14T23:18:38.485Z,100247.34
2023-05-14T23:21:06.582Z,100247.94
2023-05-14T23:23:34.585Z,100244.22
2023-05-14T23:26:02.693Z,100237.78
2023-05-14T23:28:32.065Z,100237.50
2023-05-14T23:30:59.986Z,100238.09
2023-05-14T23:33:28.156Z,100235.88
2023-05-14T23:35:56.198Z,100236.25
2023-05-14T23:38:24.196Z,100234.16
2023-05-14T23:40:52.160Z,100235.28
2023-05-14T23:43:20.121Z,100234.31
2023-05-14T23:45:49.497Z,100232.53
2023-05-14T23:48:17.554Z,100231.13
2023-05-14T23:50:46.055Z,100223.25
2023-05-14T23:53:13.743Z,100221.97
2023-05-14T23:55:41.806Z,100212.91
2023-05-14T23:58:09.955Z,100217.13
